Terminal Aerodrome Forecast
Issued by NWS

Home | Current Version | Previous Version | Text Only | Print | Product List | Glossary On
Versions: 1 2 3 4 5 6 7 8 9 10 11 12 13 14 15
000
FTUS41 KBGM 310533
TAFELM
TAF
KELM 310533Z 3106/0106 VRB03KT P6SM SCT250
     FM310900 VRB03KT P6SM BKN150
      TEMPO 3109/3112 2SM BR
     FM312000 26008KT P6SM OVC090
     FM312300 24004KT P6SM OVC060
      TEMPO 3123/0103 5SM -SHRA OVC035=

USA.gov is the U.S. government's official web portal to all federal, state and local government web resources and services.